sensor_id;sensor_type;location;lat;lon;timestamp;temperature;humidity
16825;DHT22;8529;48.108;-1.706;2022-10-13T00:00:51;14.60;99.90
16825;DHT22;8529;48.108;-1.706;2022-10-13T00:03:18;14.60;99.90
16825;DHT22;8529;48.108;-1.706;2022-10-13T00:05:48;14.60;99.90
16825;DHT22;8529;48.108;-1.706;2022-10-13T00:08:17;14.60;99.90
16825;DHT22;8529;48.108;-1.706;2022-10-13T00:10:45;14.60;99.90
16825;DHT22;8529;48.108;-1.706;2022-10-13T00:13:13;14.60;99.90
16825;DHT22;8529;48.108;-1.706;2022-10-13T00:15:43;14.60;99.90
16825;DHT22;8529;48.108;-1.706;2022-10-13T00:18:10;14.60;99.90
16825;DHT22;8529;48.108;-1.706;2022-10-13T00:20:40;14.60;99.90
16825;DHT22;8529;48.108;-1.706;2022-10-13T00:23:09;14.60;99.90
16825;DHT22;8529;48.108;-1.706;2022-10-13T00:25:40;14.60;99.90
16825;DHT22;8529;48.108;-1.706;2022-10-13T00:28:07;14.50;99.90
16825;DHT22;8529;48.108;-1.706;2022-10-13T00:30:35;14.50;99.90
16825;DHT22;8529;48.108;-1.706;2022-10-13T00:33:02;14.50;99.90
16825;DHT22;8529;48.108;-1.706;2022-10-13T00:35:29;14.50;99.90
16825;DHT22;8529;48.108;-1.706;2022-10-13T00:37:56;14.50;99.90
16825;DHT22;8529;48.108;-1.706;2022-10-13T00:40:24;14.50;99.90
16825;DHT22;8529;48.108;-1.706;2022-10-13T00:42:51;14.50;99.90
16825;DHT22;8529;48.108;-1.706;2022-10-13T00:45:22;14.50;99.90
16825;DHT22;8529;48.108;-1.706;2022-10-13T00:47:52;14.50;99.90
16825;DHT22;8529;48.108;-1.706;2022-10-13T00:50:22;14.50;99.90
16825;DHT22;8529;48.108;-1.706;2022-10-13T00:52:52;14.40;99.90
16825;DHT22;8529;48.108;-1.706;2022-10-13T00:55:21;14.40;99.90
16825;DHT22;8529;48.108;-1.706;2022-10-13T00:57:52;14.40;99.90
16825;DHT22;8529;48.108;-1.706;2022-10-13T01:00:21;14.50;99.90
16825;DHT22;8529;48.108;-1.706;2022-10-13T01:02:49;14.50;99.90
16825;DHT22;8529;48.108;-1.706;2022-10-13T01:05:17;14.50;99.90
16825;DHT22;8529;48.108;-1.706;2022-10-13T01:07:46;14.50;99.90
16825;DHT22;8529;48.108;-1.706;2022-10-13T01:10:14;14.50;99.90
16825;DHT22;8529;48.108;-1.706;2022-10-13T01:12:58;14.50;99.90
16825;DHT22;8529;48.108;-1.706;2022-10-13T01:15:29;14.50;99.90
16825;DHT22;8529;48.108;-1.706;2022-10-13T01:18:03;14.50;99.90
16825;DHT22;8529;48.108;-1.706;2022-10-13T01:21:01;14.50;99.90
16825;DHT22;8529;48.108;-1.706;2022-10-13T01:26:33;14.40;99.90
16825;DHT22;8529;48.108;-1.706;2022-10-13T01:29:28;14.40;99.90
16825;DHT22;8529;48.108;-1.706;2022-10-13T01:32:02;14.40;99.90
16825;DHT22;8529;48.108;-1.706;2022-10-13T01:34:33;14.40;99.90
16825;DHT22;8529;48.108;-1.706;2022-10-13T01:37:12;14.40;99.90
16825;DHT22;8529;48.108;-1.706;2022-10-13T01:39:45;14.40;99.90
16825;DHT22;8529;48.108;-1.706;2022-10-13T01:42:20;14.30;99.90
16825;DHT22;8529;48.108;-1.706;2022-10-13T01:44:51;14.40;99.90
16825;DHT22;8529;48.108;-1.706;2022-10-13T01:47:21;14.30;99.90
16825;DHT22;8529;48.108;-1.706;2022-10-13T01:49:49;14.30;99.90
16825;DHT22;8529;48.108;-1.706;2022-10-13T01:52:19;14.30;99.90
16825;DHT22;8529;48.108;-1.706;2022-10-13T01:54:49;14.30;99.90
16825;DHT22;8529;48.108;-1.706;2022-10-13T01:57:30;14.20;99.90
16825;DHT22;8529;48.108;-1.706;2022-10-13T01:59:59;14.20;99.90
16825;DHT22;8529;48.108;-1.706;2022-10-13T02:02:33;14.20;99.90
16825;DHT22;8529;48.108;-1.706;2022-10-13T02:05:10;14.20;99.90
16825;DHT22;8529;48.108;-1.706;2022-10-13T02:07:44;14.30;99.90
16825;DHT22;8529;48.108;-1.706;2022-10-13T02:10:18;14.20;99.90
16825;DHT22;8529;48.108;-1.706;2022-10-13T02:12:49;14.20;99.90
16825;DHT22;8529;48.108;-1.706;2022-10-13T02:15:21;14.20;99.90
16825;DHT22;8529;48.108;-1.706;2022-10-13T02:17:51;14.20;99.90
16825;DHT22;8529;48.108;-1.706;2022-10-13T02:20:20;14.30;99.90
16825;DHT22;8529;48.108;-1.706;2022-10-13T02:22:51;14.20;99.90
16825;DHT22;8529;48.108;-1.706;2022-10-13T02:25:20;14.20;99.90
16825;DHT22;8529;48.108;-1.706;2022-10-13T02:27:47;14.20;99.90
16825;DHT22;8529;48.108;-1.706;2022-10-13T02:30:20;14.20;99.90
16825;DHT22;8529;48.108;-1.706;2022-10-13T02:32:47;14.20;99.90
16825;DHT22;8529;48.108;-1.706;2022-10-13T02:35:15;14.20;99.90
16825;DHT22;8529;48.108;-1.706;2022-10-13T02:37:42;14.20;99.90
16825;DHT22;8529;48.108;-1.706;2022-10-13T02:40:10;14.20;99.90
16825;DHT22;8529;48.108;-1.706;2022-10-13T02:42:37;14.10;99.90
16825;DHT22;8529;48.108;-1.706;2022-10-13T02:45:05;14.10;99.90
16825;DHT22;8529;48.108;-1.706;2022-10-13T02:47:32;14.20;99.90
16825;DHT22;8529;48.108;-1.706;2022-10-13T02:49:59;14.20;99.90
16825;DHT22;8529;48.108;-1.706;2022-10-13T02:52:27;14.20;99.90
16825;DHT22;8529;48.108;-1.706;2022-10-13T02:54:54;14.20;99.90
16825;DHT22;8529;48.108;-1.706;2022-10-13T02:57:21;14.20;99.90
16825;DHT22;8529;48.108;-1.706;2022-10-13T02:59:48;14.20;99.90
16825;DHT22;8529;48.108;-1.706;2022-10-13T03:02:16;14.20;99.90
16825;DHT22;8529;48.108;-1.706;2022-10-13T03:04:43;14.20;99.90
16825;DHT22;8529;48.108;-1.706;2022-10-13T03:07:10;14.20;99.90
16825;DHT22;8529;48.108;-1.706;2022-10-13T03:09:38;14.10;99.90
16825;DHT22;8529;48.108;-1.706;2022-10-13T03:12:05;14.10;99.90
16825;DHT22;8529;48.108;-1.706;2022-10-13T03:14:32;14.10;99.90
16825;DHT22;8529;48.108;-1.706;2022-10-13T03:16:59;14.10;99.90
16825;DHT22;8529;48.108;-1.706;2022-10-13T03:19:26;14.10;99.90
16825;DHT22;8529;48.108;-1.706;2022-10-13T03:21:54;14.20;99.90
16825;DHT22;8529;48.108;-1.706;2022-10-13T03:24:20;14.20;99.90
16825;DHT22;8529;48.108;-1.706;2022-10-13T03:26:49;14.20;99.90
16825;DHT22;8529;48.108;-1.706;2022-10-13T03:29:16;14.20;99.90
16825;DHT22;8529;48.108;-1.706;2022-10-13T03:31:44;14.20;99.90
16825;DHT22;8529;48.108;-1.706;2022-10-13T03:34:12;14.20;99.90
16825;DHT22;8529;48.108;-1.706;2022-10-13T03:36:40;14.10;99.90
16825;DHT22;8529;48.108;-1.706;2022-10-13T03:39:07;14.10;99.90
16825;DHT22;8529;48.108;-1.706;2022-10-13T03:41:34;14.20;99.90
16825;DHT22;8529;48.108;-1.706;2022-10-13T03:44:03;14.20;99.90
16825;DHT22;8529;48.108;-1.706;2022-10-13T03:46:30;14.20;99.90
16825;DHT22;8529;48.108;-1.706;2022-10-13T03:48:57;14.20;99.90
16825;DHT22;8529;48.108;-1.706;2022-10-13T03:51:24;14.10;99.90
16825;DHT22;8529;48.108;-1.706;2022-10-13T03:53:51;14.10;99.90
16825;DHT22;8529;48.108;-1.706;2022-10-13T03:56:23;14.20;99.90
16825;DHT22;8529;48.108;-1.706;2022-10-13T03:58:50;14.20;99.90
16825;DHT22;8529;48.108;-1.706;2022-10-13T04:01:21;14.20;99.90
16825;DHT22;8529;48.108;-1.706;2022-10-13T04:03:48;14.20;99.90
16825;DHT22;8529;48.108;-1.706;2022-10-13T04:06:15;14.20;99.90
16825;DHT22;8529;48.108;-1.706;2022-10-13T04:08:43;14.20;99.90
16825;DHT22;8529;48.108;-1.706;2022-10-13T04:11:12;14.20;99.90
16825;DHT22;8529;48.108;-1.706;2022-10-13T04:13:40;14.20;99.90
16825;DHT22;8529;48.108;-1.706;2022-10-13T04:16:08;14.20;99.90
16825;DHT22;8529;48.108;-1.706;2022-10-13T04:18:39;14.20;99.90
16825;DHT22;8529;48.108;-1.706;2022-10-13T04:21:07;14.20;99.90
16825;DHT22;8529;48.108;-1.706;2022-10-13T04:23:35;14.10;99.90
16825;DHT22;8529;48.108;-1.706;2022-10-13T04:26:02;14.10;99.90
16825;DHT22;8529;48.108;-1.706;2022-10-13T04:28:29;14.10;99.90
16825;DHT22;8529;48.108;-1.706;2022-10-13T04:30:58;14.10;99.90
16825;DHT22;8529;48.108;-1.706;2022-10-13T04:33:26;14.10;99.90
16825;DHT22;8529;48.108;-1.706;2022-10-13T04:35:54;14.10;99.90
16825;DHT22;8529;48.108;-1.706;2022-10-13T04:38:21;14.10;99.90
16825;DHT22;8529;48.108;-1.706;2022-10-13T04:40:48;14.10;99.90
16825;DHT22;8529;48.108;-1.706;2022-10-13T04:43:15;14.10;99.90
16825;DHT22;8529;48.108;-1.706;2022-10-13T04:45:42;14.20;99.90
16825;DHT22;8529;48.108;-1.706;2022-10-13T04:48:09;14.20;99.90
16825;DHT22;8529;48.108;-1.706;2022-10-13T04:50:36;14.20;99.90
16825;DHT22;8529;48.108;-1.706;2022-10-13T04:53:05;14.20;99.90
16825;DHT22;8529;48.108;-1.706;2022-10-13T04:55:34;14.20;99.90
16825;DHT22;8529;48.108;-1.706;2022-10-13T04:58:01;14.20;99.90
16825;DHT22;8529;48.108;-1.706;2022-10-13T05:00:29;14.20;99.90
16825;DHT22;8529;48.108;-1.706;2022-10-13T05:02:56;14.20;99.90
16825;DHT22;8529;48.108;-1.706;2022-10-13T05:05:23;14.20;99.90
16825;DHT22;8529;48.108;-1.706;2022-10-13T05:07:50;14.30;99.90
16825;DHT22;8529;48.108;-1.706;2022-10-13T05:10:18;14.30;99.90
16825;DHT22;8529;48.108;-1.706;2022-10-13T05:12:45;14.30;99.90
16825;DHT22;8529;48.108;-1.706;2022-10-13T05:15:12;14.30;99.90
16825;DHT22;8529;48.108;-1.706;2022-10-13T05:17:39;14.30;99.90
16825;DHT22;8529;48.108;-1.706;2022-10-13T05:20:07;14.30;99.90
16825;DHT22;8529;48.108;-1.706;2022-10-13T05:22:34;14.30;99.90
16825;DHT22;8529;48.108;-1.706;2022-10-13T05:25:01;14.30;99.90
16825;DHT22;8529;48.108;-1.706;2022-10-13T05:27:30;14.30;99.90
16825;DHT22;8529;48.108;-1.706;2022-10-13T05:29:56;14.40;99.90
16825;DHT22;8529;48.108;-1.706;2022-10-13T05:32:23;14.40;99.90
16825;DHT22;8529;48.108;-1.706;2022-10-13T05:34:50;14.40;99.90
16825;DHT22;8529;48.108;-1.706;2022-10-13T05:37:17;14.40;99.90
16825;DHT22;8529;48.108;-1.706;2022-10-13T05:39:47;14.40;99.90
16825;DHT22;8529;48.108;-1.706;2022-10-13T05:42:14;14.50;99.90
16825;DHT22;8529;48.108;-1.706;2022-10-13T05:44:42;14.50;99.90
16825;DHT22;8529;48.108;-1.706;2022-10-13T05:47:09;14.50;99.90
16825;DHT22;8529;48.108;-1.706;2022-10-13T05:49:36;14.50;99.90
16825;DHT22;8529;48.108;-1.706;2022-10-13T05:52:07;14.50;99.90
16825;DHT22;8529;48.108;-1.706;2022-10-13T05:54:36;14.50;99.90
16825;DHT22;8529;48.108;-1.706;2022-10-13T05:57:07;14.60;99.90
16825;DHT22;8529;48.108;-1.706;2022-10-13T05:59:40;14.60;99.90
16825;DHT22;8529;48.108;-1.706;2022-10-13T06:02:11;14.60;99.90
16825;DHT22;8529;48.108;-1.706;2022-10-13T06:04:43;14.60;99.90
16825;DHT22;8529;48.108;-1.706;2022-10-13T06:07:11;14.70;99.90
16825;DHT22;8529;48.108;-1.706;2022-10-13T06:09:39;14.60;99.90
16825;DHT22;8529;48.108;-1.706;2022-10-13T06:12:07;14.70;99.90
16825;DHT22;8529;48.108;-1.706;2022-10-13T06:14:35;14.70;99.90
16825;DHT22;8529;48.108;-1.706;2022-10-13T06:17:02;14.70;99.90
16825;DHT22;8529;48.108;-1.706;2022-10-13T06:19:30;14.70;99.90
16825;DHT22;8529;48.108;-1.706;2022-10-13T06:21:57;14.70;99.90
16825;DHT22;8529;48.108;-1.706;2022-10-13T06:24:24;14.70;99.90
16825;DHT22;8529;48.108;-1.706;2022-10-13T06:26:51;14.70;99.90
16825;DHT22;8529;48.108;-1.706;2022-10-13T06:29:19;14.70;99.90
16825;DHT22;8529;48.108;-1.706;2022-10-13T06:31:46;14.70;99.90
16825;DHT22;8529;48.108;-1.706;2022-10-13T06:34:13;14.70;99.90
16825;DHT22;8529;48.108;-1.706;2022-10-13T06:36:41;14.70;99.90
16825;DHT22;8529;48.108;-1.706;2022-10-13T06:39:08;14.80;99.90
16825;DHT22;8529;48.108;-1.706;2022-10-13T06:41:35;14.80;99.90
16825;DHT22;8529;48.108;-1.706;2022-10-13T06:44:02;14.80;99.90
16825;DHT22;8529;48.108;-1.706;2022-10-13T06:46:29;14.80;99.90
16825;DHT22;8529;48.108;-1.706;2022-10-13T06:48:56;14.80;99.90
16825;DHT22;8529;48.108;-1.706;2022-10-13T06:51:23;14.80;99.90
16825;DHT22;8529;48.108;-1.706;2022-10-13T06:53:53;14.80;99.90
16825;DHT22;8529;48.108;-1.706;2022-10-13T06:56:20;14.80;99.90
16825;DHT22;8529;48.108;-1.706;2022-10-13T06:58:47;14.80;99.90
16825;DHT22;8529;48.108;-1.706;2022-10-13T07:01:14;14.80;99.90
16825;DHT22;8529;48.108;-1.706;2022-10-13T07:03:41;14.80;99.90
16825;DHT22;8529;48.108;-1.706;2022-10-13T07:06:08;14.90;99.90
16825;DHT22;8529;48.108;-1.706;2022-10-13T07:08:35;14.90;99.90
16825;DHT22;8529;48.108;-1.706;2022-10-13T07:11:08;14.90;99.90
16825;DHT22;8529;48.108;-1.706;2022-10-13T07:13:37;14.90;99.90
16825;DHT22;8529;48.108;-1.706;2022-10-13T07:16:04;14.90;99.90
16825;DHT22;8529;48.108;-1.706;2022-10-13T07:18:32;14.90;99.90
16825;DHT22;8529;48.108;-1.706;2022-10-13T07:20:59;14.90;99.90
16825;DHT22;8529;48.108;-1.706;2022-10-13T07:23:27;14.90;99.90
16825;DHT22;8529;48.108;-1.706;2022-10-13T07:25:54;14.90;99.90
16825;DHT22;8529;48.108;-1.706;2022-10-13T07:28:23;14.90;99.90
16825;DHT22;8529;48.108;-1.706;2022-10-13T07:30:51;14.90;99.90
16825;DHT22;8529;48.108;-1.706;2022-10-13T07:33:18;14.90;99.90
16825;DHT22;8529;48.108;-1.706;2022-10-13T07:35:45;14.90;99.90
16825;DHT22;8529;48.108;-1.706;2022-10-13T07:38:12;14.90;99.90
16825;DHT22;8529;48.108;-1.706;2022-10-13T07:40:39;15.00;99.90
16825;DHT22;8529;48.108;-1.706;2022-10-13T07:43:06;15.00;99.90
16825;DHT22;8529;48.108;-1.706;2022-10-13T07:45:35;15.00;99.90
16825;DHT22;8529;48.108;-1.706;2022-10-13T07:48:02;15.00;99.90
16825;DHT22;8529;48.108;-1.706;2022-10-13T07:50:29;15.00;99.90
16825;DHT22;8529;48.108;-1.706;2022-10-13T07:52:56;15.00;99.90
16825;DHT22;8529;48.108;-1.706;2022-10-13T07:55:23;15.00;99.90
16825;DHT22;8529;48.108;-1.706;2022-10-13T07:57:50;15.00;99.90
16825;DHT22;8529;48.108;-1.706;2022-10-13T08:00:17;15.00;99.90
16825;DHT22;8529;48.108;-1.706;2022-10-13T08:02:48;15.00;99.90
16825;DHT22;8529;48.108;-1.706;2022-10-13T08:05:16;15.00;99.90
16825;DHT22;8529;48.108;-1.706;2022-10-13T08:07:43;15.00;99.90
16825;DHT22;8529;48.108;-1.706;2022-10-13T08:10:10;15.00;99.90
16825;DHT22;8529;48.108;-1.706;2022-10-13T08:12:37;15.00;99.90
16825;DHT22;8529;48.108;-1.706;2022-10-13T08:15:05;15.10;99.90
16825;DHT22;8529;48.108;-1.706;2022-10-13T08:17:32;15.10;99.90
16825;DHT22;8529;48.108;-1.706;2022-10-13T08:20:00;15.10;99.90
16825;DHT22;8529;48.108;-1.706;2022-10-13T08:22:27;15.10;99.90
16825;DHT22;8529;48.108;-1.706;2022-10-13T08:24:54;15.20;99.90
16825;DHT22;8529;48.108;-1.706;2022-10-13T08:27:23;15.20;99.90
16825;DHT22;8529;48.108;-1.706;2022-10-13T08:29:50;15.20;99.90
16825;DHT22;8529;48.108;-1.706;2022-10-13T08:32:19;15.20;99.90
16825;DHT22;8529;48.108;-1.706;2022-10-13T08:34:46;15.30;99.90
16825;DHT22;8529;48.108;-1.706;2022-10-13T08:37:16;15.30;99.90
16825;DHT22;8529;48.108;-1.706;2022-10-13T08:39:44;15.30;99.90
16825;DHT22;8529;48.108;-1.706;2022-10-13T08:42:14;15.30;99.90
16825;DHT22;8529;48.108;-1.706;2022-10-13T08:44:44;15.30;99.90
16825;DHT22;8529;48.108;-1.706;2022-10-13T08:47:28;15.30;99.90
16825;DHT22;8529;48.108;-1.706;2022-10-13T08:50:02;15.30;99.90
16825;DHT22;8529;48.108;-1.706;2022-10-13T08:52:46;15.30;99.90
16825;DHT22;8529;48.108;-1.706;2022-10-13T08:55:19;15.30;99.90
16825;DHT22;8529;48.108;-1.706;2022-10-13T08:57:49;15.40;99.90
16825;DHT22;8529;48.108;-1.706;2022-10-13T09:00:17;15.40;99.90
16825;DHT22;8529;48.108;-1.706;2022-10-13T09:02:44;15.40;99.90
16825;DHT22;8529;48.108;-1.706;2022-10-13T09:05:15;15.40;99.90
16825;DHT22;8529;48.108;-1.706;2022-10-13T09:07:45;15.50;99.90
16825;DHT22;8529;48.108;-1.706;2022-10-13T09:10:13;15.50;99.90
16825;DHT22;8529;48.108;-1.706;2022-10-13T09:12:41;15.50;99.90
16825;DHT22;8529;48.108;-1.706;2022-10-13T09:15:10;15.60;99.90
16825;DHT22;8529;48.108;-1.706;2022-10-13T09:17:38;15.60;99.90
16825;DHT22;8529;48.108;-1.706;2022-10-13T09:20:17;15.60;99.90
16825;DHT22;8529;48.108;-1.706;2022-10-13T09:23:01;15.60;99.90
16825;DHT22;8529;48.108;-1.706;2022-10-13T09:25:28;15.60;99.90
16825;DHT22;8529;48.108;-1.706;2022-10-13T09:27:57;15.60;99.90
16825;DHT22;8529;48.108;-1.706;2022-10-13T09:30:31;15.60;99.90
16825;DHT22;8529;48.108;-1.706;2022-10-13T09:33:19;15.70;99.90
16825;DHT22;8529;48.108;-1.706;2022-10-13T09:35:47;15.70;99.90
16825;DHT22;8529;48.108;-1.706;2022-10-13T09:38:18;15.70;99.90
16825;DHT22;8529;48.108;-1.706;2022-10-13T09:40:56;15.70;99.90
16825;DHT22;8529;48.108;-1.706;2022-10-13T09:43:29;15.70;99.90
16825;DHT22;8529;48.108;-1.706;2022-10-13T09:45:56;15.70;99.90
16825;DHT22;8529;48.108;-1.706;2022-10-13T09:48:27;15.70;99.90
16825;DHT22;8529;48.108;-1.706;2022-10-13T09:50:56;15.70;99.90
16825;DHT22;8529;48.108;-1.706;2022-10-13T09:53:30;15.70;99.90
16825;DHT22;8529;48.108;-1.706;2022-10-13T09:56:07;15.70;99.90
16825;DHT22;8529;48.108;-1.706;2022-10-13T09:58:37;15.70;99.90
16825;DHT22;8529;48.108;-1.706;2022-10-13T10:01:09;15.70;99.90
16825;DHT22;8529;48.108;-1.706;2022-10-13T10:03:43;15.70;99.90
16825;DHT22;8529;48.108;-1.706;2022-10-13T10:06:13;15.70;99.90
16825;DHT22;8529;48.108;-1.706;2022-10-13T10:08:46;15.70;99.90
16825;DHT22;8529;48.108;-1.706;2022-10-13T10:11:18;15.70;99.90
16825;DHT22;8529;48.108;-1.706;2022-10-13T10:13:48;15.70;99.90
16825;DHT22;8529;48.108;-1.706;2022-10-13T10:16:20;15.70;99.90
16825;DHT22;8529;48.108;-1.706;2022-10-13T10:18:58;15.80;99.90
16825;DHT22;8529;48.108;-1.706;2022-10-13T10:21:31;15.80;99.90
16825;DHT22;8529;48.108;-1.706;2022-10-13T10:24:07;15.80;99.90
16825;DHT22;8529;48.108;-1.706;2022-10-13T10:26:47;15.70;99.90
16825;DHT22;8529;48.108;-1.706;2022-10-13T10:29:31;15.80;99.90
16825;DHT22;8529;48.108;-1.706;2022-10-13T10:32:08;15.80;99.90
16825;DHT22;8529;48.108;-1.706;2022-10-13T10:34:44;15.80;99.90
16825;DHT22;8529;48.108;-1.706;2022-10-13T10:37:16;15.80;99.90
16825;DHT22;8529;48.108;-1.706;2022-10-13T10:39:49;15.80;99.90
16825;DHT22;8529;48.108;-1.706;2022-10-13T10:42:29;15.80;99.90
16825;DHT22;8529;48.108;-1.706;2022-10-13T10:45:02;15.80;99.90
16825;DHT22;8529;48.108;-1.706;2022-10-13T10:47:35;15.80;99.90
16825;DHT22;8529;48.108;-1.706;2022-10-13T10:50:06;15.90;99.90
16825;DHT22;8529;48.108;-1.706;2022-10-13T10:52:47;15.90;99.90
16825;DHT22;8529;48.108;-1.706;2022-10-13T10:55:21;15.90;99.90
16825;DHT22;8529;48.108;-1.706;2022-10-13T10:57:56;15.80;99.90
16825;DHT22;8529;48.108;-1.706;2022-10-13T11:00:26;15.80;99.90
16825;DHT22;8529;48.108;-1.706;2022-10-13T11:02:59;15.80;99.90
16825;DHT22;8529;48.108;-1.706;2022-10-13T11:08:26;15.80;99.90
16825;DHT22;8529;48.108;-1.706;2022-10-13T11:13:56;15.80;99.90
16825;DHT22;8529;48.108;-1.706;2022-10-13T11:16:28;15.80;99.90
16825;DHT22;8529;48.108;-1.706;2022-10-13T11:19:01;15.80;99.90
16825;DHT22;8529;48.108;-1.706;2022-10-13T11:22:09;15.80;99.90
16825;DHT22;8529;48.108;-1.706;2022-10-13T11:24:46;15.80;99.90
16825;DHT22;8529;48.108;-1.706;2022-10-13T11:27:40;15.80;99.90
16825;DHT22;8529;48.108;-1.706;2022-10-13T11:30:39;15.80;99.90
16825;DHT22;8529;48.108;-1.706;2022-10-13T11:33:35;15.80;99.90
16825;DHT22;8529;48.108;-1.706;2022-10-13T11:36:49;15.70;99.90
16825;DHT22;8529;48.108;-1.706;2022-10-13T11:39:46;15.70;99.90
16825;DHT22;8529;48.108;-1.706;2022-10-13T11:42:46;15.70;99.90
16825;DHT22;8529;48.108;-1.706;2022-10-13T11:45:40;15.70;99.90
16825;DHT22;8529;48.108;-1.706;2022-10-13T11:51:23;15.70;99.90
16825;DHT22;8529;48.108;-1.706;2022-10-13T11:54:03;15.80;99.90
16825;DHT22;8529;48.108;-1.706;2022-10-13T11:56:33;15.80;99.90
16825;DHT22;8529;48.108;-1.706;2022-10-13T11:59:00;15.80;99.90
16825;DHT22;8529;48.108;-1.706;2022-10-13T12:01:29;15.80;99.90
16825;DHT22;8529;48.108;-1.706;2022-10-13T12:03:56;15.90;99.90
16825;DHT22;8529;48.108;-1.706;2022-10-13T12:06:29;15.90;99.90
16825;DHT22;8529;48.108;-1.706;2022-10-13T12:09:01;15.80;99.90
16825;DHT22;8529;48.108;-1.706;2022-10-13T12:11:32;15.80;99.90
16825;DHT22;8529;48.108;-1.706;2022-10-13T12:14:00;15.80;99.90
16825;DHT22;8529;48.108;-1.706;2022-10-13T12:16:29;15.90;99.90
16825;DHT22;8529;48.108;-1.706;2022-10-13T12:19:06;15.90;99.90
16825;DHT22;8529;48.108;-1.706;2022-10-13T12:21:33;15.90;99.90
16825;DHT22;8529;48.108;-1.706;2022-10-13T12:24:13;15.90;99.90
16825;DHT22;8529;48.108;-1.706;2022-10-13T12:26:40;15.90;99.90
16825;DHT22;8529;48.108;-1.706;2022-10-13T12:29:11;15.80;99.90
16825;DHT22;8529;48.108;-1.706;2022-10-13T12:31:41;15.90;99.90
16825;DHT22;8529;48.108;-1.706;2022-10-13T12:34:21;15.90;99.90
16825;DHT22;8529;48.108;-1.706;2022-10-13T12:36:58;15.90;99.90
16825;DHT22;8529;48.108;-1.706;2022-10-13T12:39:27;15.90;99.90
16825;DHT22;8529;48.108;-1.706;2022-10-13T12:41:55;15.90;99.90
16825;DHT22;8529;48.108;-1.706;2022-10-13T12:44:25;15.90;99.90
16825;DHT22;8529;48.108;-1.706;2022-10-13T12:46:55;15.80;99.90
16825;DHT22;8529;48.108;-1.706;2022-10-13T12:49:25;15.90;99.90
16825;DHT22;8529;48.108;-1.706;2022-10-13T12:51:56;15.90;99.90
16825;DHT22;8529;48.108;-1.706;2022-10-13T12:54:28;15.90;99.90
16825;DHT22;8529;48.108;-1.706;2022-10-13T12:56:58;15.90;99.90
16825;DHT22;8529;48.108;-1.706;2022-10-13T12:59:27;15.90;99.90
16825;DHT22;8529;48.108;-1.706;2022-10-13T13:01:58;15.90;99.90
16825;DHT22;8529;48.108;-1.706;2022-10-13T13:04:40;15.90;99.90
16825;DHT22;8529;48.108;-1.706;2022-10-13T13:07:38;15.90;99.90
16825;DHT22;8529;48.108;-1.706;2022-10-13T13:10:16;15.90;99.90
16825;DHT22;8529;48.108;-1.706;2022-10-13T13:12:44;15.90;99.90
16825;DHT22;8529;48.108;-1.706;2022-10-13T13:15:26;15.90;99.90
16825;DHT22;8529;48.108;-1.706;2022-10-13T13:18:23;16.00;99.90
16825;DHT22;8529;48.108;-1.706;2022-10-13T13:20:50;16.00;99.90
16825;DHT22;8529;48.108;-1.706;2022-10-13T13:23:17;16.10;99.90
16825;DHT22;8529;48.108;-1.706;2022-10-13T13:25:45;16.10;99.90
16825;DHT22;8529;48.108;-1.706;2022-10-13T13:28:13;16.10;99.90
16825;DHT22;8529;48.108;-1.706;2022-10-13T13:30:41;16.20;99.90
16825;DHT22;8529;48.108;-1.706;2022-10-13T13:33:10;16.20;99.90
16825;DHT22;8529;48.108;-1.706;2022-10-13T13:35:37;16.20;99.90
16825;DHT22;8529;48.108;-1.706;2022-10-13T13:38:04;16.20;99.90
16825;DHT22;8529;48.108;-1.706;2022-10-13T13:40:31;16.30;99.90
16825;DHT22;8529;48.108;-1.706;2022-10-13T13:42:58;16.30;99.90
16825;DHT22;8529;48.108;-1.706;2022-10-13T13:45:25;16.30;99.90
16825;DHT22;8529;48.108;-1.706;2022-10-13T13:47:52;16.30;99.90
16825;DHT22;8529;48.108;-1.706;2022-10-13T13:50:22;16.30;99.90
16825;DHT22;8529;48.108;-1.706;2022-10-13T13:52:49;16.40;99.90
16825;DHT22;8529;48.108;-1.706;2022-10-13T13:55:17;16.40;99.90
16825;DHT22;8529;48.108;-1.706;2022-10-13T13:57:44;16.30;99.90
16825;DHT22;8529;48.108;-1.706;2022-10-13T14:00:13;16.30;99.90
16825;DHT22;8529;48.108;-1.706;2022-10-13T14:02:41;16.40;99.90
16825;DHT22;8529;48.108;-1.706;2022-10-13T14:05:09;16.40;99.90
16825;DHT22;8529;48.108;-1.706;2022-10-13T14:07:38;16.30;99.90
16825;DHT22;8529;48.108;-1.706;2022-10-13T14:10:07;16.30;99.90
16825;DHT22;8529;48.108;-1.706;2022-10-13T14:12:35;16.30;99.90
16825;DHT22;8529;48.108;-1.706;2022-10-13T14:15:03;16.30;99.90
16825;DHT22;8529;48.108;-1.706;2022-10-13T14:17:30;16.30;99.90
16825;DHT22;8529;48.108;-1.706;2022-10-13T14:19:57;16.30;99.90
16825;DHT22;8529;48.108;-1.706;2022-10-13T14:22:24;16.30;99.90
16825;DHT22;8529;48.108;-1.706;2022-10-13T14:24:52;16.30;99.90
16825;DHT22;8529;48.108;-1.706;2022-10-13T14:27:20;16.40;99.90
16825;DHT22;8529;48.108;-1.706;2022-10-13T14:29:47;16.40;99.90
16825;DHT22;8529;48.108;-1.706;2022-10-13T14:32:14;16.40;99.90
16825;DHT22;8529;48.108;-1.706;2022-10-13T14:34:41;16.40;99.90
16825;DHT22;8529;48.108;-1.706;2022-10-13T14:37:08;16.40;99.90
16825;DHT22;8529;48.108;-1.706;2022-10-13T14:39:35;16.40;99.90
16825;DHT22;8529;48.108;-1.706;2022-10-13T14:42:03;16.40;99.90
16825;DHT22;8529;48.108;-1.706;2022-10-13T14:44:30;16.40;99.90
16825;DHT22;8529;48.108;-1.706;2022-10-13T14:46:57;16.40;99.90
16825;DHT22;8529;48.108;-1.706;2022-10-13T14:49:24;16.40;99.90
16825;DHT22;8529;48.108;-1.706;2022-10-13T14:51:52;16.40;99.90
16825;DHT22;8529;48.108;-1.706;2022-10-13T14:54:19;16.40;99.90
16825;DHT22;8529;48.108;-1.706;2022-10-13T14:56:46;16.40;99.90
16825;DHT22;8529;48.108;-1.706;2022-10-13T14:59:14;16.40;99.90
16825;DHT22;8529;48.108;-1.706;2022-10-13T15:01:41;16.40;99.90
16825;DHT22;8529;48.108;-1.706;2022-10-13T15:04:09;16.40;99.90
16825;DHT22;8529;48.108;-1.706;2022-10-13T15:06:36;16.40;99.90
16825;DHT22;8529;48.108;-1.706;2022-10-13T15:09:04;16.40;99.90
16825;DHT22;8529;48.108;-1.706;2022-10-13T15:11:32;16.40;99.90
16825;DHT22;8529;48.108;-1.706;2022-10-13T15:13:59;16.40;99.90
16825;DHT22;8529;48.108;-1.706;2022-10-13T15:16:29;16.50;99.90
16825;DHT22;8529;48.108;-1.706;2022-10-13T15:18:57;16.50;99.90
16825;DHT22;8529;48.108;-1.706;2022-10-13T15:21:25;16.50;99.90
16825;DHT22;8529;48.108;-1.706;2022-10-13T15:23:52;16.50;99.90
16825;DHT22;8529;48.108;-1.706;2022-10-13T15:26:19;16.50;99.90
16825;DHT22;8529;48.108;-1.706;2022-10-13T15:28:47;16.50;99.90
16825;DHT22;8529;48.108;-1.706;2022-10-13T15:31:16;16.50;99.90
16825;DHT22;8529;48.108;-1.706;2022-10-13T15:33:47;16.50;99.90
16825;DHT22;8529;48.108;-1.706;2022-10-13T15:36:14;16.60;99.90
16825;DHT22;8529;48.108;-1.706;2022-10-13T15:38:41;16.50;99.90
16825;DHT22;8529;48.108;-1.706;2022-10-13T15:41:09;16.60;99.90
16825;DHT22;8529;48.108;-1.706;2022-10-13T15:43:37;16.60;99.90
16825;DHT22;8529;48.108;-1.706;2022-10-13T15:46:05;16.60;99.90
16825;DHT22;8529;48.108;-1.706;2022-10-13T15:48:33;16.60;99.90
16825;DHT22;8529;48.108;-1.706;2022-10-13T15:51:01;16.60;99.90
16825;DHT22;8529;48.108;-1.706;2022-10-13T15:53:34;16.60;99.90
16825;DHT22;8529;48.108;-1.706;2022-10-13T15:56:01;16.60;99.90
16825;DHT22;8529;48.108;-1.706;2022-10-13T15:58:28;16.60;99.90
16825;DHT22;8529;48.108;-1.706;2022-10-13T16:00:55;16.60;99.90